sensor_id;sensor_type;location;lat;lon;timestamp;P1;durP1;ratioP1;P2;durP2;ratioP2
74974;SDS011;68459;50.836;19.138;2024-02-26T00:01:39;24.92;;;9.35;;
74974;SDS011;68459;50.836;19.138;2024-02-26T00:04:45;22.63;;;9.30;;
74974;SDS011;68459;50.836;19.138;2024-02-26T00:07:49;22.95;;;9.82;;
74974;SDS011;68459;50.836;19.138;2024-02-26T00:10:53;23.60;;;10.65;;
74974;SDS011;68459;50.836;19.138;2024-02-26T00:13:58;26.10;;;10.25;;
74974;SDS011;68459;50.836;19.138;2024-02-26T00:17:02;20.80;;;8.77;;
74974;SDS011;68459;50.836;19.138;2024-02-26T00:20:06;23.35;;;10.23;;
74974;SDS011;68459;50.836;19.138;2024-02-26T00:23:11;28.90;;;11.25;;
74974;SDS011;68459;50.836;19.138;2024-02-26T00:26:18;23.10;;;10.20;;
74974;SDS011;68459;50.836;19.138;2024-02-26T00:29:23;27.63;;;11.68;;
74974;SDS011;68459;50.836;19.138;2024-02-26T00:32:27;26.98;;;12.00;;
74974;SDS011;68459;50.836;19.138;2024-02-26T00:35:31;35.90;;;13.13;;
74974;SDS011;68459;50.836;19.138;2024-02-26T00:38:35;29.85;;;13.55;;
74974;SDS011;68459;50.836;19.138;2024-02-26T00:41:39;34.50;;;13.93;;
74974;SDS011;68459;50.836;19.138;2024-02-26T00:44:45;23.73;;;11.27;;
74974;SDS011;68459;50.836;19.138;2024-02-26T00:47:49;22.20;;;10.15;;
74974;SDS011;68459;50.836;19.138;2024-02-26T00:50:53;31.42;;;12.32;;
74974;SDS011;68459;50.836;19.138;2024-02-26T00:53:57;27.77;;;11.15;;
74974;SDS011;68459;50.836;19.138;2024-02-26T00:57:01;22.00;;;11.83;;
74974;SDS011;68459;50.836;19.138;2024-02-26T01:00:06;27.23;;;11.98;;
74974;SDS011;68459;50.836;19.138;2024-02-26T01:03:12;28.05;;;11.77;;
74974;SDS011;68459;50.836;19.138;2024-02-26T01:06:15;30.87;;;13.10;;
74974;SDS011;68459;50.836;19.138;2024-02-26T01:09:19;34.15;;;12.52;;
74974;SDS011;68459;50.836;19.138;2024-02-26T01:12:23;32.58;;;13.05;;
74974;SDS011;68459;50.836;19.138;2024-02-26T01:15:28;34.95;;;15.50;;
74974;SDS011;68459;50.836;19.138;2024-02-26T01:18:32;33.30;;;15.43;;
74974;SDS011;68459;50.836;19.138;2024-02-26T01:21:36;33.17;;;15.05;;
74974;SDS011;68459;50.836;19.138;2024-02-26T01:24:40;31.60;;;13.98;;
74974;SDS011;68459;50.836;19.138;2024-02-26T01:27:44;32.33;;;12.93;;
74974;SDS011;68459;50.836;19.138;2024-02-26T01:30:49;31.33;;;13.30;;
74974;SDS011;68459;50.836;19.138;2024-02-26T01:33:53;27.85;;;12.55;;
74974;SDS011;68459;50.836;19.138;2024-02-26T01:36:57;26.87;;;11.93;;
74974;SDS011;68459;50.836;19.138;2024-02-26T01:40:01;26.75;;;11.73;;
74974;SDS011;68459;50.836;19.138;2024-02-26T01:43:05;30.42;;;11.52;;
74974;SDS011;68459;50.836;19.138;2024-02-26T01:46:11;23.25;;;11.40;;
74974;SDS011;68459;50.836;19.138;2024-02-26T01:49:17;25.02;;;10.18;;
74974;SDS011;68459;50.836;19.138;2024-02-26T01:52:21;24.52;;;10.48;;
74974;SDS011;68459;50.836;19.138;2024-02-26T01:55:25;25.10;;;11.18;;
74974;SDS011;68459;50.836;19.138;2024-02-26T01:58:30;22.37;;;11.43;;
74974;SDS011;68459;50.836;19.138;2024-02-26T02:01:35;23.25;;;10.60;;
74974;SDS011;68459;50.836;19.138;2024-02-26T02:04:42;26.40;;;11.38;;
74974;SDS011;68459;50.836;19.138;2024-02-26T02:07:45;29.20;;;11.83;;
74974;SDS011;68459;50.836;19.138;2024-02-26T02:10:51;25.13;;;11.75;;
74974;SDS011;68459;50.836;19.138;2024-02-26T02:13:55;23.42;;;11.85;;
74974;SDS011;68459;50.836;19.138;2024-02-26T02:17:00;28.52;;;11.57;;
74974;SDS011;68459;50.836;19.138;2024-02-26T02:20:04;25.45;;;11.20;;
74974;SDS011;68459;50.836;19.138;2024-02-26T02:23:14;26.10;;;11.50;;
74974;SDS011;68459;50.836;19.138;2024-02-26T02:26:17;26.52;;;12.50;;
74974;SDS011;68459;50.836;19.138;2024-02-26T02:29:22;25.23;;;12.93;;
74974;SDS011;68459;50.836;19.138;2024-02-26T02:32:26;27.38;;;11.60;;
74974;SDS011;68459;50.836;19.138;2024-02-26T02:35:32;27.77;;;12.18;;
74974;SDS011;68459;50.836;19.138;2024-02-26T02:38:37;30.63;;;11.90;;
74974;SDS011;68459;50.836;19.138;2024-02-26T02:41:41;26.00;;;11.05;;
74974;SDS011;68459;50.836;19.138;2024-02-26T02:44:45;25.23;;;11.82;;
74974;SDS011;68459;50.836;19.138;2024-02-26T02:47:49;27.40;;;11.77;;
74974;SDS011;68459;50.836;19.138;2024-02-26T02:50:53;30.30;;;11.18;;
74974;SDS011;68459;50.836;19.138;2024-02-26T02:53:58;20.58;;;10.40;;
74974;SDS011;68459;50.836;19.138;2024-02-26T02:57:02;27.65;;;10.13;;
74974;SDS011;68459;50.836;19.138;2024-02-26T03:00:06;25.03;;;9.50;;
74974;SDS011;68459;50.836;19.138;2024-02-26T03:03:11;25.13;;;9.48;;
74974;SDS011;68459;50.836;19.138;2024-02-26T03:06:16;22.88;;;10.30;;
74974;SDS011;68459;50.836;19.138;2024-02-26T03:09:21;19.70;;;9.83;;
74974;SDS011;68459;50.836;19.138;2024-02-26T03:12:25;25.80;;;9.85;;
74974;SDS011;68459;50.836;19.138;2024-02-26T03:15:30;22.98;;;9.75;;
74974;SDS011;68459;50.836;19.138;2024-02-26T03:18:34;26.38;;;9.43;;
74974;SDS011;68459;50.836;19.138;2024-02-26T03:21:38;21.75;;;9.00;;
74974;SDS011;68459;50.836;19.138;2024-02-26T03:24:43;19.40;;;8.85;;
74974;SDS011;68459;50.836;19.138;2024-02-26T03:27:47;20.05;;;9.18;;
74974;SDS011;68459;50.836;19.138;2024-02-26T03:30:51;22.60;;;9.70;;
74974;SDS011;68459;50.836;19.138;2024-02-26T03:33:55;24.80;;;10.07;;
74974;SDS011;68459;50.836;19.138;2024-02-26T03:36:59;21.13;;;9.63;;
74974;SDS011;68459;50.836;19.138;2024-02-26T03:40:05;18.97;;;8.53;;
74974;SDS011;68459;50.836;19.138;2024-02-26T03:43:11;19.70;;;7.95;;
74974;SDS011;68459;50.836;19.138;2024-02-26T03:46:14;19.40;;;8.60;;
74974;SDS011;68459;50.836;19.138;2024-02-26T03:49:18;21.30;;;9.43;;
74974;SDS011;68459;50.836;19.138;2024-02-26T03:52:22;22.85;;;8.85;;
74974;SDS011;68459;50.836;19.138;2024-02-26T03:55:28;24.27;;;9.25;;
74974;SDS011;68459;50.836;19.138;2024-02-26T03:58:31;22.05;;;8.95;;
74974;SDS011;68459;50.836;19.138;2024-02-26T04:01:36;24.87;;;8.43;;
74974;SDS011;68459;50.836;19.138;2024-02-26T04:04:40;21.58;;;8.25;;
74974;SDS011;68459;50.836;19.138;2024-02-26T04:07:44;18.15;;;9.02;;
74974;SDS011;68459;50.836;19.138;2024-02-26T04:10:49;18.77;;;8.07;;
74974;SDS011;68459;50.836;19.138;2024-02-26T04:13:53;23.27;;;8.07;;
74974;SDS011;68459;50.836;19.138;2024-02-26T04:16:57;21.33;;;8.70;;
74974;SDS011;68459;50.836;19.138;2024-02-26T04:20:01;17.88;;;8.35;;
74974;SDS011;68459;50.836;19.138;2024-02-26T04:23:05;22.60;;;10.20;;
74974;SDS011;68459;50.836;19.138;2024-02-26T04:26:11;28.20;;;11.15;;
74974;SDS011;68459;50.836;19.138;2024-02-26T04:29:14;26.05;;;10.65;;
74974;SDS011;68459;50.836;19.138;2024-02-26T04:32:19;40.87;;;13.27;;
74974;SDS011;68459;50.836;19.138;2024-02-26T04:35:23;43.25;;;13.80;;
74974;SDS011;68459;50.836;19.138;2024-02-26T04:38:27;44.58;;;14.23;;
74974;SDS011;68459;50.836;19.138;2024-02-26T04:41:32;39.80;;;13.60;;
74974;SDS011;68459;50.836;19.138;2024-02-26T04:44:36;46.53;;;14.30;;
74974;SDS011;68459;50.836;19.138;2024-02-26T04:47:40;39.65;;;14.55;;
74974;SDS011;68459;50.836;19.138;2024-02-26T04:50:44;32.53;;;13.02;;
74974;SDS011;68459;50.836;19.138;2024-02-26T04:53:48;27.50;;;11.63;;
74974;SDS011;68459;50.836;19.138;2024-02-26T04:56:53;29.88;;;12.32;;
74974;SDS011;68459;50.836;19.138;2024-02-26T04:59:57;26.98;;;11.38;;
74974;SDS011;68459;50.836;19.138;2024-02-26T05:03:01;26.87;;;11.50;;
74974;SDS011;68459;50.836;19.138;2024-02-26T05:06:05;28.05;;;11.23;;
74974;SDS011;68459;50.836;19.138;2024-02-26T05:09:11;25.55;;;11.18;;
74974;SDS011;68459;50.836;19.138;2024-02-26T05:12:16;29.70;;;11.47;;
74974;SDS011;68459;50.836;19.138;2024-02-26T05:15:20;28.20;;;11.23;;
74974;SDS011;68459;50.836;19.138;2024-02-26T05:18:24;23.75;;;9.88;;
74974;SDS011;68459;50.836;19.138;2024-02-26T05:21:28;25.95;;;10.80;;
74974;SDS011;68459;50.836;19.138;2024-02-26T05:24:32;27.98;;;11.98;;
74974;SDS011;68459;50.836;19.138;2024-02-26T05:27:37;27.10;;;10.95;;
74974;SDS011;68459;50.836;19.138;2024-02-26T05:30:41;22.60;;;10.55;;
74974;SDS011;68459;50.836;19.138;2024-02-26T05:33:45;24.10;;;9.87;;
74974;SDS011;68459;50.836;19.138;2024-02-26T05:36:49;24.02;;;11.52;;
74974;SDS011;68459;50.836;19.138;2024-02-26T05:39:53;27.92;;;10.57;;
74974;SDS011;68459;50.836;19.138;2024-02-26T05:42:58;20.50;;;10.50;;
74974;SDS011;68459;50.836;19.138;2024-02-26T05:46:02;22.58;;;10.00;;
74974;SDS011;68459;50.836;19.138;2024-02-26T05:49:06;21.88;;;9.65;;
74974;SDS011;68459;50.836;19.138;2024-02-26T05:52:10;20.15;;;9.10;;
74974;SDS011;68459;50.836;19.138;2024-02-26T05:55:14;19.50;;;9.68;;
74974;SDS011;68459;50.836;19.138;2024-02-26T05:58:19;22.70;;;9.18;;
74974;SDS011;68459;50.836;19.138;2024-02-26T06:01:23;21.55;;;9.60;;
74974;SDS011;68459;50.836;19.138;2024-02-26T06:04:27;21.13;;;9.23;;
74974;SDS011;68459;50.836;19.138;2024-02-26T06:07:31;17.35;;;8.68;;
74974;SDS011;68459;50.836;19.138;2024-02-26T06:10:35;19.40;;;8.63;;
74974;SDS011;68459;50.836;19.138;2024-02-26T06:13:40;15.40;;;7.53;;
74974;SDS011;68459;50.836;19.138;2024-02-26T06:16:44;20.75;;;8.55;;
74974;SDS011;68459;50.836;19.138;2024-02-26T06:19:47;15.50;;;8.13;;
74974;SDS011;68459;50.836;19.138;2024-02-26T06:22:51;20.83;;;9.18;;
74974;SDS011;68459;50.836;19.138;2024-02-26T06:25:55;19.60;;;8.55;;
74974;SDS011;68459;50.836;19.138;2024-02-26T06:29:00;15.98;;;8.13;;
74974;SDS011;68459;50.836;19.138;2024-02-26T06:32:04;17.38;;;8.30;;
74974;SDS011;68459;50.836;19.138;2024-02-26T06:35:32;15.40;;;7.07;;
74974;SDS011;68459;50.836;19.138;2024-02-26T06:38:36;17.83;;;7.28;;
74974;SDS011;68459;50.836;19.138;2024-02-26T06:41:39;20.02;;;8.20;;
74974;SDS011;68459;50.836;19.138;2024-02-26T06:44:45;18.13;;;8.27;;
74974;SDS011;68459;50.836;19.138;2024-02-26T06:47:49;18.02;;;8.45;;
74974;SDS011;68459;50.836;19.138;2024-02-26T06:50:53;17.65;;;8.45;;
74974;SDS011;68459;50.836;19.138;2024-02-26T06:53:57;21.65;;;9.10;;
74974;SDS011;68459;50.836;19.138;2024-02-26T06:57:01;18.95;;;8.23;;
74974;SDS011;68459;50.836;19.138;2024-02-26T07:00:08;15.60;;;8.00;;
74974;SDS011;68459;50.836;19.138;2024-02-26T07:03:17;20.48;;;9.32;;
74974;SDS011;68459;50.836;19.138;2024-02-26T07:06:20;19.03;;;9.40;;
74974;SDS011;68459;50.836;19.138;2024-02-26T07:09:24;23.90;;;11.02;;
74974;SDS011;68459;50.836;19.138;2024-02-26T07:12:28;28.00;;;11.18;;
74974;SDS011;68459;50.836;19.138;2024-02-26T07:15:34;24.07;;;10.27;;
74974;SDS011;68459;50.836;19.138;2024-02-26T07:18:38;24.92;;;12.40;;
74974;SDS011;68459;50.836;19.138;2024-02-26T07:21:42;25.65;;;12.68;;
74974;SDS011;68459;50.836;19.138;2024-02-26T07:24:46;29.75;;;13.25;;
74974;SDS011;68459;50.836;19.138;2024-02-26T07:27:50;22.25;;;12.40;;
74974;SDS011;68459;50.836;19.138;2024-02-26T07:30:55;25.23;;;11.70;;
74974;SDS011;68459;50.836;19.138;2024-02-26T07:33:59;21.85;;;11.20;;
74974;SDS011;68459;50.836;19.138;2024-02-26T07:37:03;19.37;;;9.37;;
74974;SDS011;68459;50.836;19.138;2024-02-26T07:40:08;20.02;;;9.95;;
74974;SDS011;68459;50.836;19.138;2024-02-26T07:43:13;18.23;;;8.88;;
74974;SDS011;68459;50.836;19.138;2024-02-26T07:46:18;17.23;;;8.80;;
74974;SDS011;68459;50.836;19.138;2024-02-26T07:49:22;15.00;;;8.35;;
74974;SDS011;68459;50.836;19.138;2024-02-26T07:52:26;13.18;;;7.80;;
74974;SDS011;68459;50.836;19.138;2024-02-26T07:55:29;17.95;;;8.07;;
74974;SDS011;68459;50.836;19.138;2024-02-26T07:58:33;15.40;;;7.32;;
74974;SDS011;68459;50.836;19.138;2024-02-26T08:01:38;16.05;;;7.25;;
74974;SDS011;68459;50.836;19.138;2024-02-26T08:04:43;13.95;;;7.03;;
74974;SDS011;68459;50.836;19.138;2024-02-26T08:07:47;11.80;;;6.37;;
74974;SDS011;68459;50.836;19.138;2024-02-26T08:10:51;11.35;;;5.53;;
74974;SDS011;68459;50.836;19.138;2024-02-26T08:13:55;13.48;;;6.10;;
74974;SDS011;68459;50.836;19.138;2024-02-26T08:17:00;16.50;;;6.40;;
74974;SDS011;68459;50.836;19.138;2024-02-26T08:20:04;13.98;;;5.90;;
74974;SDS011;68459;50.836;19.138;2024-02-26T08:23:09;16.23;;;8.07;;
74974;SDS011;68459;50.836;19.138;2024-02-26T08:26:13;9.13;;;4.78;;
74974;SDS011;68459;50.836;19.138;2024-02-26T08:29:17;9.35;;;4.50;;
74974;SDS011;68459;50.836;19.138;2024-02-26T08:32:22;6.93;;;3.88;;
74974;SDS011;68459;50.836;19.138;2024-02-26T08:35:26;12.20;;;4.97;;
74974;SDS011;68459;50.836;19.138;2024-02-26T08:38:29;6.93;;;3.93;;
74974;SDS011;68459;50.836;19.138;2024-02-26T10:29:01;5.50;;;3.30;;
74974;SDS011;68459;50.836;19.138;2024-02-26T10:32:05;6.68;;;3.50;;
74974;SDS011;68459;50.836;19.138;2024-02-26T10:35:09;6.63;;;3.45;;
74974;SDS011;68459;50.836;19.138;2024-02-26T10:38:13;7.07;;;3.60;;
74974;SDS011;68459;50.836;19.138;2024-02-26T10:41:22;7.22;;;3.55;;
74974;SDS011;68459;50.836;19.138;2024-02-26T10:44:27;8.55;;;3.70;;
74974;SDS011;68459;50.836;19.138;2024-02-26T10:47:31;6.55;;;3.35;;
74974;SDS011;68459;50.836;19.138;2024-02-26T10:50:35;7.03;;;3.40;;
74974;SDS011;68459;50.836;19.138;2024-02-26T10:53:40;6.95;;;3.53;;
74974;SDS011;68459;50.836;19.138;2024-02-26T10:56:46;6.70;;;3.72;;
74974;SDS011;68459;50.836;19.138;2024-02-26T10:59:55;7.77;;;3.50;;
74974;SDS011;68459;50.836;19.138;2024-02-26T11:02:59;6.57;;;3.45;;
74974;SDS011;68459;50.836;19.138;2024-02-26T11:06:05;7.28;;;4.05;;
74974;SDS011;68459;50.836;19.138;2024-02-26T11:09:10;7.85;;;4.10;;
74974;SDS011;68459;50.836;19.138;2024-02-26T11:12:16;8.13;;;4.32;;
74974;SDS011;68459;50.836;19.138;2024-02-26T11:15:22;7.60;;;4.20;;
74974;SDS011;68459;50.836;19.138;2024-02-26T11:18:27;9.02;;;4.50;;
74974;SDS011;68459;50.836;19.138;2024-02-26T11:21:32;10.63;;;5.20;;
74974;SDS011;68459;50.836;19.138;2024-02-26T11:24:43;9.40;;;4.38;;
74974;SDS011;68459;50.836;19.138;2024-02-26T11:27:48;7.80;;;4.20;;
74974;SDS011;68459;50.836;19.138;2024-02-26T11:30:57;11.10;;;4.50;;
74974;SDS011;68459;50.836;19.138;2024-02-26T11:34:02;8.25;;;4.32;;
74974;SDS011;68459;50.836;19.138;2024-02-26T11:37:10;9.23;;;4.20;;
74974;SDS011;68459;50.836;19.138;2024-02-26T11:40:14;7.25;;;4.03;;
74974;SDS011;68459;50.836;19.138;2024-02-26T11:43:18;9.00;;;4.03;;
74974;SDS011;68459;50.836;19.138;2024-02-26T11:46:28;6.75;;;3.78;;
74974;SDS011;68459;50.836;19.138;2024-02-26T11:49:33;7.15;;;3.50;;
74974;SDS011;68459;50.836;19.138;2024-02-26T11:52:37;6.40;;;3.27;;
74974;SDS011;68459;50.836;19.138;2024-02-26T11:55:41;8.02;;;3.30;;
74974;SDS011;68459;50.836;19.138;2024-02-26T11:58:45;7.43;;;3.60;;
74974;SDS011;68459;50.836;19.138;2024-02-26T12:01:50;9.63;;;3.80;;
74974;SDS011;68459;50.836;19.138;2024-02-26T12:04:54;10.18;;;4.18;;
74974;SDS011;68459;50.836;19.138;2024-02-26T12:07:59;8.93;;;4.82;;
74974;SDS011;68459;50.836;19.138;2024-02-26T12:11:14;8.18;;;4.30;;
74974;SDS011;68459;50.836;19.138;2024-02-26T12:14:18;7.47;;;3.83;;
74974;SDS011;68459;50.836;19.138;2024-02-26T12:17:23;9.75;;;3.80;;
74974;SDS011;68459;50.836;19.138;2024-02-26T12:20:30;8.35;;;3.70;;
74974;SDS011;68459;50.836;19.138;2024-02-26T12:23:34;6.07;;;3.73;;
74974;SDS011;68459;50.836;19.138;2024-02-26T12:26:38;9.27;;;4.13;;
74974;SDS011;68459;50.836;19.138;2024-02-26T12:29:42;6.47;;;3.20;;
74974;SDS011;68459;50.836;19.138;2024-02-26T12:32:48;7.77;;;3.93;;
74974;SDS011;68459;50.836;19.138;2024-02-26T12:35:53;8.27;;;3.95;;
74974;SDS011;68459;50.836;19.138;2024-02-26T12:38:57;8.85;;;4.05;;
74974;SDS011;68459;50.836;19.138;2024-02-26T12:42:02;9.93;;;4.18;;
74974;SDS011;68459;50.836;19.138;2024-02-26T12:45:07;5.93;;;3.40;;
74974;SDS011;68459;50.836;19.138;2024-02-26T12:48:14;9.68;;;3.80;;
74974;SDS011;68459;50.836;19.138;2024-02-26T12:51:18;6.40;;;3.42;;
74974;SDS011;68459;50.836;19.138;2024-02-26T12:54:23;6.60;;;3.30;;
74974;SDS011;68459;50.836;19.138;2024-02-26T12:57:27;6.65;;;3.65;;
74974;SDS011;68459;50.836;19.138;2024-02-26T13:00:32;8.50;;;3.30;;
74974;SDS011;68459;50.836;19.138;2024-02-26T13:03:38;5.40;;;3.00;;
74974;SDS011;68459;50.836;19.138;2024-02-26T13:06:42;4.53;;;2.70;;
74974;SDS011;68459;50.836;19.138;2024-02-26T13:09:46;4.72;;;2.50;;
74974;SDS011;68459;50.836;19.138;2024-02-26T13:12:50;5.05;;;2.88;;
74974;SDS011;68459;50.836;19.138;2024-02-26T13:16:00;5.30;;;2.60;;
74974;SDS011;68459;50.836;19.138;2024-02-26T13:19:10;5.85;;;2.60;;
74974;SDS011;68459;50.836;19.138;2024-02-26T13:22:14;5.80;;;2.67;;
74974;SDS011;68459;50.836;19.138;2024-02-26T13:25:20;5.25;;;2.80;;
74974;SDS011;68459;50.836;19.138;2024-02-26T13:28:23;4.13;;;2.53;;
74974;SDS011;68459;50.836;19.138;2024-02-26T13:31:29;5.13;;;2.65;;
74974;SDS011;68459;50.836;19.138;2024-02-26T13:34:34;5.07;;;2.85;;
74974;SDS011;68459;50.836;19.138;2024-02-26T13:37:39;4.37;;;2.47;;
74974;SDS011;68459;50.836;19.138;2024-02-26T13:40:44;5.40;;;2.67;;
74974;SDS011;68459;50.836;19.138;2024-02-26T13:43:48;4.75;;;2.80;;
74974;SDS011;68459;50.836;19.138;2024-02-26T13:46:52;4.57;;;2.80;;
74974;SDS011;68459;50.836;19.138;2024-02-26T13:49:57;5.55;;;2.80;;
74974;SDS011;68459;50.836;19.138;2024-02-26T13:53:01;6.68;;;3.15;;
74974;SDS011;68459;50.836;19.138;2024-02-26T13:56:06;6.28;;;3.70;;
74974;SDS011;68459;50.836;19.138;2024-02-26T13:59:10;7.63;;;3.13;;
74974;SDS011;68459;50.836;19.138;2024-02-26T14:02:14;5.10;;;2.78;;
74974;SDS011;68459;50.836;19.138;2024-02-26T14:05:20;5.45;;;3.00;;
74974;SDS011;68459;50.836;19.138;2024-02-26T14:08:24;6.23;;;3.20;;
74974;SDS011;68459;50.836;19.138;2024-02-26T14:11:28;5.38;;;2.80;;
74974;SDS011;68459;50.836;19.138;2024-02-26T14:14:33;5.47;;;3.38;;
74974;SDS011;68459;50.836;19.138;2024-02-26T14:17:40;6.40;;;3.70;;
74974;SDS011;68459;50.836;19.138;2024-02-26T14:20:46;6.55;;;3.33;;
74974;SDS011;68459;50.836;19.138;2024-02-26T14:23:50;8.70;;;3.60;;
74974;SDS011;68459;50.836;19.138;2024-02-26T14:26:54;6.80;;;3.25;;
74974;SDS011;68459;50.836;19.138;2024-02-26T14:29:58;6.30;;;3.35;;
74974;SDS011;68459;50.836;19.138;2024-02-26T14:33:02;4.90;;;3.00;;
74974;SDS011;68459;50.836;19.138;2024-02-26T14:36:08;4.45;;;2.58;;
74974;SDS011;68459;50.836;19.138;2024-02-26T14:39:13;4.77;;;2.90;;
74974;SDS011;68459;50.836;19.138;2024-02-26T14:42:17;5.70;;;2.97;;
74974;SDS011;68459;50.836;19.138;2024-02-26T14:45:21;7.75;;;2.95;;
74974;SDS011;68459;50.836;19.138;2024-02-26T14:48:25;5.03;;;2.47;;
74974;SDS011;68459;50.836;19.138;2024-02-26T14:51:31;5.72;;;3.00;;
74974;SDS011;68459;50.836;19.138;2024-02-26T14:54:36;6.07;;;3.20;;
74974;SDS011;68459;50.836;19.138;2024-02-26T14:57:40;6.47;;;2.83;;
74974;SDS011;68459;50.836;19.138;2024-02-26T15:00:44;7.03;;;3.05;;
74974;SDS011;68459;50.836;19.138;2024-02-26T15:03:48;7.80;;;3.05;;
74974;SDS011;68459;50.836;19.138;2024-02-26T15:06:53;7.00;;;3.22;;
74974;SDS011;68459;50.836;19.138;2024-02-26T15:09:57;5.50;;;2.97;;
74974;SDS011;68459;50.836;19.138;2024-02-26T15:13:03;26.67;;;10.68;;
74974;SDS011;68459;50.836;19.138;2024-02-26T15:16:08;6.93;;;3.60;;
74974;SDS011;68459;50.836;19.138;2024-02-26T15:19:20;10.93;;;5.53;;
74974;SDS011;68459;50.836;19.138;2024-02-26T15:22:25;6.72;;;3.83;;
74974;SDS011;68459;50.836;19.138;2024-02-26T15:25:29;7.80;;;3.60;;
74974;SDS011;68459;50.836;19.138;2024-02-26T15:28:33;6.85;;;3.65;;
74974;SDS011;68459;50.836;19.138;2024-02-26T15:31:37;7.68;;;3.60;;
74974;SDS011;68459;50.836;19.138;2024-02-26T15:34:41;6.32;;;3.17;;
74974;SDS011;68459;50.836;19.138;2024-02-26T15:37:46;5.88;;;3.20;;
74974;SDS011;68459;50.836;19.138;2024-02-26T15:40:50;8.63;;;3.70;;
74974;SDS011;68459;50.836;19.138;2024-02-26T15:43:54;6.40;;;3.45;;
74974;SDS011;68459;50.836;19.138;2024-02-26T15:46:58;8.55;;;4.30;;
74974;SDS011;68459;50.836;19.138;2024-02-26T15:50:03;9.13;;;3.87;;
74974;SDS011;68459;50.836;19.138;2024-02-26T15:53:10;9.43;;;4.25;;
74974;SDS011;68459;50.836;19.138;2024-02-26T15:56:14;8.43;;;3.88;;
74974;SDS011;68459;50.836;19.138;2024-02-26T15:59:19;6.97;;;3.80;;
74974;SDS011;68459;50.836;19.138;2024-02-26T16:02:23;8.98;;;4.53;;
74974;SDS011;68459;50.836;19.138;2024-02-26T16:05:28;8.60;;;4.50;;
74974;SDS011;68459;50.836;19.138;2024-02-26T16:08:33;8.65;;;4.38;;
74974;SDS011;68459;50.836;19.138;2024-02-26T16:11:37;9.87;;;4.67;;
74974;SDS011;68459;50.836;19.138;2024-02-26T16:14:42;9.23;;;4.75;;
74974;SDS011;68459;50.836;19.138;2024-02-26T16:17:50;10.48;;;4.82;;
74974;SDS011;68459;50.836;19.138;2024-02-26T16:20:57;12.33;;;5.57;;
74974;SDS011;68459;50.836;19.138;2024-02-26T16:24:02;12.15;;;5.50;;
74974;SDS011;68459;50.836;19.138;2024-02-26T16:27:07;12.25;;;5.80;;
74974;SDS011;68459;50.836;19.138;2024-02-26T16:30:11;13.27;;;6.80;;
74974;SDS011;68459;50.836;19.138;2024-02-26T16:33:16;10.13;;;6.07;;
74974;SDS011;68459;50.836;19.138;2024-02-26T16:36:20;13.77;;;7.00;;
74974;SDS011;68459;50.836;19.138;2024-02-26T16:39:25;12.68;;;6.40;;
74974;SDS011;68459;50.836;19.138;2024-02-26T16:42:29;12.83;;;6.67;;
74974;SDS011;68459;50.836;19.138;2024-02-26T16:45:33;21.80;;;11.60;;
74974;SDS011;68459;50.836;19.138;2024-02-26T16:48:37;16.42;;;8.55;;
74974;SDS011;68459;50.836;19.138;2024-02-26T16:51:41;15.67;;;7.00;;
74974;SDS011;68459;50.836;19.138;2024-02-26T16:54:47;13.32;;;6.78;;
74974;SDS011;68459;50.836;19.138;2024-02-26T16:57:51;13.68;;;7.32;;
74974;SDS011;68459;50.836;19.138;2024-02-26T17:00:55;13.85;;;7.10;;
74974;SDS011;68459;50.836;19.138;2024-02-26T17:03:59;13.95;;;7.68;;
74974;SDS011;68459;50.836;19.138;2024-02-26T17:07:04;13.10;;;6.93;;
74974;SDS011;68459;50.836;19.138;2024-02-26T17:10:10;13.93;;;7.20;;
74974;SDS011;68459;50.836;19.138;2024-02-26T17:13:14;15.77;;;7.40;;
74974;SDS011;68459;50.836;19.138;2024-02-26T17:16:19;16.17;;;7.57;;
74974;SDS011;68459;50.836;19.138;2024-02-26T17:19:24;14.30;;;7.82;;
74974;SDS011;68459;50.836;19.138;2024-02-26T17:22:28;14.00;;;7.20;;
74974;SDS011;68459;50.836;19.138;2024-02-26T17:25:33;13.57;;;7.00;;
74974;SDS011;68459;50.836;19.138;2024-02-26T17:28:37;14.05;;;7.25;;
74974;SDS011;68459;50.836;19.138;2024-02-26T17:31:42;14.80;;;7.40;;
74974;SDS011;68459;50.836;19.138;2024-02-26T17:34:46;12.18;;;6.75;;
74974;SDS011;68459;50.836;19.138;2024-02-26T17:37:50;12.90;;;6.68;;
74974;SDS011;68459;50.836;19.138;2024-02-26T17:40:56;15.02;;;6.93;;
74974;SDS011;68459;50.836;19.138;2024-02-26T17:44:00;13.10;;;6.97;;
74974;SDS011;68459;50.836;19.138;2024-02-26T17:47:05;15.77;;;7.47;;
74974;SDS011;68459;50.836;19.138;2024-02-26T17:50:09;13.35;;;7.22;;
74974;SDS011;68459;50.836;19.138;2024-02-26T17:53:14;15.43;;;6.73;;
74974;SDS011;68459;50.836;19.138;2024-02-26T17:56:19;14.57;;;7.50;;
74974;SDS011;68459;50.836;19.138;2024-02-26T17:59:23;17.55;;;8.10;;
74974;SDS011;68459;50.836;19.138;2024-02-26T18:02:28;15.15;;;8.20;;
74974;SDS011;68459;50.836;19.138;2024-02-26T18:05:32;13.60;;;7.28;;
74974;SDS011;68459;50.836;19.138;2024-02-26T18:08:36;13.07;;;7.85;;
74974;SDS011;68459;50.836;19.138;2024-02-26T18:11:41;21.77;;;9.25;;
74974;SDS011;68459;50.836;19.138;2024-02-26T18:14:46;15.17;;;8.10;;
74974;SDS011;68459;50.836;19.138;2024-02-26T18:17:50;18.15;;;8.93;;
74974;SDS011;68459;50.836;19.138;2024-02-26T18:20:54;16.17;;;7.60;;
74974;SDS011;68459;50.836;19.138;2024-02-26T18:23:58;14.30;;;7.17;;
74974;SDS011;68459;50.836;19.138;2024-02-26T18:27:04;13.75;;;7.13;;
74974;SDS011;68459;50.836;19.138;2024-02-26T18:30:08;11.55;;;6.82;;
74974;SDS011;68459;50.836;19.138;2024-02-26T18:33:13;11.35;;;6.43;;
74974;SDS011;68459;50.836;19.138;2024-02-26T18:36:18;12.05;;;6.45;;
74974;SDS011;68459;50.836;19.138;2024-02-26T18:39:25;13.70;;;7.10;;
74974;SDS011;68459;50.836;19.138;2024-02-26T18:42:30;14.85;;;6.32;;
74974;SDS011;68459;50.836;19.138;2024-02-26T18:45:35;12.37;;;6.83;;
74974;SDS011;68459;50.836;19.138;2024-02-26T18:48:40;12.90;;;6.95;;
74974;SDS011;68459;50.836;19.138;2024-02-26T18:51:44;11.48;;;6.82;;
74974;SDS011;68459;50.836;19.138;2024-02-26T18:54:48;10.97;;;6.70;;
74974;SDS011;68459;50.836;19.138;2024-02-26T18:57:54;13.00;;;6.53;;
74974;SDS011;68459;50.836;19.138;2024-02-26T19:00:58;11.90;;;6.82;;
74974;SDS011;68459;50.836;19.138;2024-02-26T19:04:02;13.93;;;6.85;;
74974;SDS011;68459;50.836;19.138;2024-02-26T19:07:06;16.60;;;7.75;;
74974;SDS011;68459;50.836;19.138;2024-02-26T19:10:10;16.08;;;7.10;;
74974;SDS011;68459;50.836;19.138;2024-02-26T19:13:16;13.60;;;7.13;;
74974;SDS011;68459;50.836;19.138;2024-02-26T19:16:19;18.07;;;8.37;;
74974;SDS011;68459;50.836;19.138;2024-02-26T19:19:24;24.95;;;12.50;;
74974;SDS011;68459;50.836;19.138;2024-02-26T19:22:28;38.30;;;16.08;;
74974;SDS011;68459;50.836;19.138;2024-02-26T19:25:33;37.17;;;15.87;;
74974;SDS011;68459;50.836;19.138;2024-02-26T19:28:38;28.83;;;14.15;;
74974;SDS011;68459;50.836;19.138;2024-02-26T19:31:45;29.70;;;14.27;;
74974;SDS011;68459;50.836;19.138;2024-02-26T19:34:49;25.65;;;12.30;;
74974;SDS011;68459;50.836;19.138;2024-02-26T19:37:54;28.65;;;12.48;;
74974;SDS011;68459;50.836;19.138;2024-02-26T19:40:59;25.42;;;11.88;;
74974;SDS011;68459;50.836;19.138;2024-02-26T19:44:04;22.83;;;11.85;;
74974;SDS011;68459;50.836;19.138;2024-02-26T19:47:09;26.83;;;13.20;;